sensor_id;sensor_type;location;lat;lon;timestamp;pressure;altitude;pressure_sealevel;temperature;humidity
85119;BME280;75469;47.654;10.494;2024-02-26T00:02:15;89851.19;;;2.53;49.58
85119;BME280;75469;47.654;10.494;2024-02-26T00:04:41;89847.59;;;2.24;52.20
85119;BME280;75469;47.654;10.494;2024-02-26T00:07:07;89850.09;;;2.13;51.32
85119;BME280;75469;47.654;10.494;2024-02-26T00:09:32;89850.81;;;2.10;53.17
85119;BME280;75469;47.654;10.494;2024-02-26T00:12:04;89851.81;;;1.98;54.10
85119;BME280;75469;47.654;10.494;2024-02-26T00:14:31;89850.97;;;1.87;53.51
85119;BME280;75469;47.654;10.494;2024-02-26T00:16:56;89843.97;;;1.95;52.36
85119;BME280;75469;47.654;10.494;2024-02-26T00:19:22;89845.31;;;1.78;56.30
85119;BME280;75469;47.654;10.494;2024-02-26T00:21:47;89836.63;;;2.52;47.67
85119;BME280;75469;47.654;10.494;2024-02-26T00:24:13;89845.28;;;2.63;48.59
85119;BME280;75469;47.654;10.494;2024-02-26T00:26:39;89836.56;;;2.41;51.06
85119;BME280;75469;47.654;10.494;2024-02-26T00:29:04;89832.81;;;2.39;51.65
85119;BME280;75469;47.654;10.494;2024-02-26T00:31:30;89839.16;;;2.41;51.43
85119;BME280;75469;47.654;10.494;2024-02-26T00:33:55;89841.59;;;2.20;52.16
85119;BME280;75469;47.654;10.494;2024-02-26T00:36:21;89838.06;;;2.46;50.51
85119;BME280;75469;47.654;10.494;2024-02-26T00:38:46;89846.19;;;1.93;55.31
85119;BME280;75469;47.654;10.494;2024-02-26T00:41:20;89836.63;;;2.08;55.11
85119;BME280;75469;47.654;10.494;2024-02-26T00:43:46;89839.75;;;1.83;54.92
85119;BME280;75469;47.654;10.494;2024-02-26T00:46:12;89837.50;;;2.70;49.45
85119;BME280;75469;47.654;10.494;2024-02-26T00:48:37;89836.56;;;2.96;47.39
85119;BME280;75469;47.654;10.494;2024-02-26T00:51:03;89838.47;;;2.48;53.50
85119;BME280;75469;47.654;10.494;2024-02-26T00:53:33;89836.72;;;2.18;54.17
85119;BME280;75469;47.654;10.494;2024-02-26T00:55:58;89844.41;;;2.04;55.43
85119;BME280;75469;47.654;10.494;2024-02-26T00:58:25;89838.72;;;1.91;54.80
85119;BME280;75469;47.654;10.494;2024-02-26T01:00:50;89844.41;;;2.04;54.90
85119;BME280;75469;47.654;10.494;2024-02-26T01:03:17;89837.69;;;1.99;55.09
85119;BME280;75469;47.654;10.494;2024-02-26T01:05:42;89839.38;;;2.73;48.33
85119;BME280;75469;47.654;10.494;2024-02-26T01:08:08;89839.38;;;2.73;52.03
85119;BME280;75469;47.654;10.494;2024-02-26T01:10:33;89834.06;;;2.11;55.33
85119;BME280;75469;47.654;10.494;2024-02-26T01:12:59;89823.47;;;1.93;56.33
85119;BME280;75469;47.654;10.494;2024-02-26T01:15:25;89822.81;;;2.48;50.29
85119;BME280;75469;47.654;10.494;2024-02-26T01:17:50;89824.88;;;2.24;52.69
85119;BME280;75469;47.654;10.494;2024-02-26T01:20:16;89818.66;;;2.43;51.20
85119;BME280;75469;47.654;10.494;2024-02-26T01:22:43;89824.78;;;2.14;54.23
85119;BME280;75469;47.654;10.494;2024-02-26T01:25:09;89810.66;;;2.18;54.18
85119;BME280;75469;47.654;10.494;2024-02-26T01:27:35;89805.97;;;2.38;51.85
85119;BME280;75469;47.654;10.494;2024-02-26T01:30:04;89813.28;;;2.22;54.50
85119;BME280;75469;47.654;10.494;2024-02-26T01:32:30;89811.53;;;2.33;52.12
85119;BME280;75469;47.654;10.494;2024-02-26T01:34:56;89807.44;;;2.36;55.34
85119;BME280;75469;47.654;10.494;2024-02-26T01:37:22;89814.00;;;2.19;56.54
85119;BME280;75469;47.654;10.494;2024-02-26T01:39:47;89815.22;;;1.88;58.66
85119;BME280;75469;47.654;10.494;2024-02-26T01:42:13;89808.72;;;1.71;59.46
85119;BME280;75469;47.654;10.494;2024-02-26T01:44:38;89811.63;;;1.62;59.48
85119;BME280;75469;47.654;10.494;2024-02-26T01:47:05;89812.31;;;1.59;59.26
85119;BME280;75469;47.654;10.494;2024-02-26T01:49:34;89808.53;;;1.87;55.45
85119;BME280;75469;47.654;10.494;2024-02-26T01:52:00;89798.16;;;1.94;57.52
85119;BME280;75469;47.654;10.494;2024-02-26T01:54:27;89801.81;;;1.89;57.50
85119;BME280;75469;47.654;10.494;2024-02-26T01:56:53;89795.91;;;1.92;57.92
85119;BME280;75469;47.654;10.494;2024-02-26T01:59:19;89794.38;;;1.88;56.40
85119;BME280;75469;47.654;10.494;2024-02-26T02:01:47;89783.97;;;1.91;55.30
85119;BME280;75469;47.654;10.494;2024-02-26T02:04:15;89797.63;;;2.18;55.32
85119;BME280;75469;47.654;10.494;2024-02-26T02:06:41;89795.81;;;1.81;57.49
85119;BME280;75469;47.654;10.494;2024-02-26T02:09:08;89798.03;;;1.79;57.01
85119;BME280;75469;47.654;10.494;2024-02-26T02:11:34;89799.13;;;1.78;58.07
85119;BME280;75469;47.654;10.494;2024-02-26T02:13:59;89799.88;;;1.79;57.33
85119;BME280;75469;47.654;10.494;2024-02-26T02:16:25;89793.56;;;1.80;58.68
85119;BME280;75469;47.654;10.494;2024-02-26T02:18:50;89797.66;;;1.81;55.81
85119;BME280;75469;47.654;10.494;2024-02-26T02:21:16;89790.56;;;2.22;53.98
85119;BME280;75469;47.654;10.494;2024-02-26T02:23:41;89796.16;;;2.24;56.40
85119;BME280;75469;47.654;10.494;2024-02-26T02:26:12;89798.66;;;2.10;54.64
85119;BME280;75469;47.654;10.494;2024-02-26T02:28:39;89799.31;;;2.00;55.06
85119;BME280;75469;47.654;10.494;2024-02-26T02:31:05;89802.66;;;1.97;56.52
85119;BME280;75469;47.654;10.494;2024-02-26T02:33:31;89797.91;;;2.10;56.05
85119;BME280;75469;47.654;10.494;2024-02-26T02:35:58;89804.09;;;2.35;52.71
85119;BME280;75469;47.654;10.494;2024-02-26T02:38:24;89800.16;;;2.59;51.38
85119;BME280;75469;47.654;10.494;2024-02-26T02:40:54;89808.63;;;2.45;56.20
85119;BME280;75469;47.654;10.494;2024-02-26T02:43:19;89805.72;;;2.54;54.03
85119;BME280;75469;47.654;10.494;2024-02-26T02:45:45;89807.44;;;2.32;58.98
85119;BME280;75469;47.654;10.494;2024-02-26T02:48:11;89803.94;;;2.17;60.23
85119;BME280;75469;47.654;10.494;2024-02-26T02:50:37;89799.31;;;1.96;61.00
85119;BME280;75469;47.654;10.494;2024-02-26T02:53:04;89807.88;;;1.97;60.02
85119;BME280;75469;47.654;10.494;2024-02-26T02:55:29;89801.53;;;2.42;53.00
85119;BME280;75469;47.654;10.494;2024-02-26T02:57:55;89816.38;;;1.90;59.96
85119;BME280;75469;47.654;10.494;2024-02-26T03:00:21;89808.47;;;1.83;59.04
85119;BME280;75469;47.654;10.494;2024-02-26T03:02:50;89806.56;;;1.76;61.98
85119;BME280;75469;47.654;10.494;2024-02-26T03:05:16;89805.59;;;1.95;61.47
85119;BME280;75469;47.654;10.494;2024-02-26T03:07:42;89803.56;;;2.19;58.56
85119;BME280;75469;47.654;10.494;2024-02-26T03:10:07;89811.19;;;1.94;62.36
85119;BME280;75469;47.654;10.494;2024-02-26T03:12:36;89809.91;;;1.77;62.27
85119;BME280;75469;47.654;10.494;2024-02-26T03:15:02;89804.41;;;1.86;62.61
85119;BME280;75469;47.654;10.494;2024-02-26T03:17:30;89808.94;;;2.37;54.37
85119;BME280;75469;47.654;10.494;2024-02-26T03:19:56;89812.47;;;2.62;52.39
85119;BME280;75469;47.654;10.494;2024-02-26T03:22:21;89813.22;;;2.59;55.98
85119;BME280;75469;47.654;10.494;2024-02-26T03:24:47;89814.28;;;2.55;55.51
85119;BME280;75469;47.654;10.494;2024-02-26T03:27:13;89818.78;;;2.58;52.78
85119;BME280;75469;47.654;10.494;2024-02-26T03:29:40;89810.28;;;2.68;52.12
85119;BME280;75469;47.654;10.494;2024-02-26T03:32:07;89799.16;;;2.78;51.07
85119;BME280;75469;47.654;10.494;2024-02-26T03:34:34;89803.41;;;3.04;53.25
85119;BME280;75469;47.654;10.494;2024-02-26T03:37:00;89806.41;;;2.47;54.81
85119;BME280;75469;47.654;10.494;2024-02-26T03:39:26;89806.44;;;2.51;57.53
85119;BME280;75469;47.654;10.494;2024-02-26T03:41:53;89815.28;;;2.39;55.03
85119;BME280;75469;47.654;10.494;2024-02-26T03:44:19;89817.19;;;2.46;52.71
85119;BME280;75469;47.654;10.494;2024-02-26T03:46:45;89815.81;;;2.59;51.90
85119;BME280;75469;47.654;10.494;2024-02-26T03:49:10;89802.50;;;2.75;50.92
85119;BME280;75469;47.654;10.494;2024-02-26T03:51:37;89808.22;;;2.98;52.59
85119;BME280;75469;47.654;10.494;2024-02-26T03:54:02;89801.06;;;2.85;50.64
85119;BME280;75469;47.654;10.494;2024-02-26T03:56:28;89789.50;;;2.86;53.41
85119;BME280;75469;47.654;10.494;2024-02-26T03:58:54;89793.91;;;2.74;52.91
85119;BME280;75469;47.654;10.494;2024-02-26T04:01:19;89793.28;;;2.95;52.48
85119;BME280;75469;47.654;10.494;2024-02-26T04:03:45;89794.06;;;3.03;51.43
85119;BME280;75469;47.654;10.494;2024-02-26T04:06:11;89795.09;;;2.88;53.92
85119;BME280;75469;47.654;10.494;2024-02-26T04:08:37;89808.16;;;2.91;51.42
85119;BME280;75469;47.654;10.494;2024-02-26T04:11:03;89807.44;;;2.91;51.99
85119;BME280;75469;47.654;10.494;2024-02-26T04:13:35;89797.00;;;2.94;52.12
85119;BME280;75469;47.654;10.494;2024-02-26T04:16:04;89803.75;;;2.99;51.91
85119;BME280;75469;47.654;10.494;2024-02-26T04:18:29;89801.53;;;3.05;52.04
85119;BME280;75469;47.654;10.494;2024-02-26T04:20:55;89802.59;;;2.93;54.85
85119;BME280;75469;47.654;10.494;2024-02-26T04:23:22;89813.28;;;2.73;56.16
85119;BME280;75469;47.654;10.494;2024-02-26T04:25:48;89814.44;;;2.76;55.75
85119;BME280;75469;47.654;10.494;2024-02-26T04:28:13;89812.19;;;2.74;55.76
85119;BME280;75469;47.654;10.494;2024-02-26T04:30:39;89812.84;;;2.64;58.03
85119;BME280;75469;47.654;10.494;2024-02-26T04:33:04;89809.50;;;2.64;57.61
85119;BME280;75469;47.654;10.494;2024-02-26T04:35:30;89814.41;;;2.72;56.11
85119;BME280;75469;47.654;10.494;2024-02-26T04:37:56;89817.63;;;2.55;58.97
85119;BME280;75469;47.654;10.494;2024-02-26T04:40:21;89812.72;;;2.98;56.38
85119;BME280;75469;47.654;10.494;2024-02-26T04:42:47;89811.94;;;2.97;53.67
85119;BME280;75469;47.654;10.494;2024-02-26T04:45:12;89816.78;;;2.95;54.56
85119;BME280;75469;47.654;10.494;2024-02-26T04:47:38;89819.28;;;2.74;58.51
85119;BME280;75469;47.654;10.494;2024-02-26T04:50:04;89814.78;;;2.71;59.34
85119;BME280;75469;47.654;10.494;2024-02-26T04:52:30;89813.69;;;2.79;58.65
85119;BME280;75469;47.654;10.494;2024-02-26T04:54:55;89817.75;;;2.69;59.25
85119;BME280;75469;47.654;10.494;2024-02-26T04:57:21;89812.84;;;2.61;59.86
85119;BME280;75469;47.654;10.494;2024-02-26T04:59:47;89813.56;;;2.58;59.96
85119;BME280;75469;47.654;10.494;2024-02-26T05:02:13;89820.28;;;2.59;59.57
85119;BME280;75469;47.654;10.494;2024-02-26T05:04:39;89820.25;;;2.55;60.40
85119;BME280;75469;47.654;10.494;2024-02-26T05:07:05;89822.50;;;2.57;60.73
85119;BME280;75469;47.654;10.494;2024-02-26T05:09:31;89822.56;;;2.16;62.96
85119;BME280;75469;47.654;10.494;2024-02-26T05:11:57;89830.56;;;1.93;62.63
85119;BME280;75469;47.654;10.494;2024-02-26T05:14:23;89826.88;;;2.01;62.75
85119;BME280;75469;47.654;10.494;2024-02-26T05:16:50;89825.72;;;2.36;59.22
85119;BME280;75469;47.654;10.494;2024-02-26T05:19:17;89829.22;;;2.10;62.24
85119;BME280;75469;47.654;10.494;2024-02-26T05:21:43;89819.53;;;2.10;60.47
85119;BME280;75469;47.654;10.494;2024-02-26T05:24:09;89818.53;;;2.25;59.60
85119;BME280;75469;47.654;10.494;2024-02-26T05:26:35;89817.91;;;2.39;59.61
85119;BME280;75469;47.654;10.494;2024-02-26T05:29:01;89820.69;;;2.16;61.16
85119;BME280;75469;47.654;10.494;2024-02-26T05:31:27;89825.59;;;2.25;60.53
85119;BME280;75469;47.654;10.494;2024-02-26T05:33:52;89826.81;;;2.35;60.67
85119;BME280;75469;47.654;10.494;2024-02-26T05:36:22;89816.84;;;2.44;61.55
85119;BME280;75469;47.654;10.494;2024-02-26T05:38:48;89816.44;;;2.42;61.91
85119;BME280;75469;47.654;10.494;2024-02-26T05:41:17;89825.88;;;2.61;61.65
85119;BME280;75469;47.654;10.494;2024-02-26T05:43:51;89819.91;;;2.60;62.17
85119;BME280;75469;47.654;10.494;2024-02-26T05:46:18;89827.47;;;2.76;60.85
85119;BME280;75469;47.654;10.494;2024-02-26T05:48:44;89828.59;;;2.75;60.65
85119;BME280;75469;47.654;10.494;2024-02-26T05:51:10;89825.22;;;2.71;62.03
85119;BME280;75469;47.654;10.494;2024-02-26T05:53:35;89821.47;;;2.65;61.67
85119;BME280;75469;47.654;10.494;2024-02-26T05:56:01;89821.41;;;2.61;61.90
85119;BME280;75469;47.654;10.494;2024-02-26T05:58:26;89832.28;;;2.70;61.41
85119;BME280;75469;47.654;10.494;2024-02-26T06:00:52;89836.06;;;2.77;61.60
85119;BME280;75469;47.654;10.494;2024-02-26T06:03:17;89837.59;;;2.81;61.22
85119;BME280;75469;47.654;10.494;2024-02-26T06:05:43;89844.38;;;2.93;59.78
85119;BME280;75469;47.654;10.494;2024-02-26T06:08:08;89845.88;;;2.94;61.17
85119;BME280;75469;47.654;10.494;2024-02-26T06:10:34;89844.81;;;3.06;59.01
85119;BME280;75469;47.654;10.494;2024-02-26T06:12:59;89845.84;;;2.90;62.10
85119;BME280;75469;47.654;10.494;2024-02-26T06:15:25;89853.59;;;2.80;62.11
85119;BME280;75469;47.654;10.494;2024-02-26T06:17:50;89854.75;;;2.82;60.91
85119;BME280;75469;47.654;10.494;2024-02-26T06:20:16;89866.91;;;2.60;65.05
85119;BME280;75469;47.654;10.494;2024-02-26T06:22:42;89864.59;;;2.55;64.72
85119;BME280;75469;47.654;10.494;2024-02-26T06:25:08;89871.50;;;2.78;63.07
85119;BME280;75469;47.654;10.494;2024-02-26T06:27:34;89881.34;;;2.95;61.02
85119;BME280;75469;47.654;10.494;2024-02-26T06:30:00;89881.41;;;3.09;60.98
85119;BME280;75469;47.654;10.494;2024-02-26T06:32:25;89887.34;;;3.06;60.63
85119;BME280;75469;47.654;10.494;2024-02-26T06:34:53;89894.47;;;3.13;60.70
85119;BME280;75469;47.654;10.494;2024-02-26T06:37:18;89887.72;;;3.05;62.83
85119;BME280;75469;47.654;10.494;2024-02-26T06:39:44;89893.69;;;3.02;63.13
85119;BME280;75469;47.654;10.494;2024-02-26T06:42:09;89879.59;;;3.20;59.90
85119;BME280;75469;47.654;10.494;2024-02-26T06:44:35;89874.03;;;3.22;59.12
85119;BME280;75469;47.654;10.494;2024-02-26T06:47:01;89874.47;;;3.35;62.74
85119;BME280;75469;47.654;10.494;2024-02-26T06:49:27;89876.66;;;2.70;65.56
85119;BME280;75469;47.654;10.494;2024-02-26T06:52:09;89878.31;;;2.04;69.14
85119;BME280;75469;47.654;10.494;2024-02-26T06:54:34;89877.34;;;2.19;66.74
85119;BME280;75469;47.654;10.494;2024-02-26T06:57:00;89876.19;;;2.58;63.53
85119;BME280;75469;47.654;10.494;2024-02-26T06:59:26;89889.09;;;2.88;63.22
85119;BME280;75469;47.654;10.494;2024-02-26T07:01:51;89885.53;;;3.10;60.92
85119;BME280;75469;47.654;10.494;2024-02-26T07:04:17;89892.03;;;3.41;60.56
85119;BME280;75469;47.654;10.494;2024-02-26T07:06:42;89887.31;;;3.69;56.70
85119;BME280;75469;47.654;10.494;2024-02-26T07:09:09;89882.91;;;3.87;56.40
85119;BME280;75469;47.654;10.494;2024-02-26T07:11:34;89889.66;;;3.99;55.94
85119;BME280;75469;47.654;10.494;2024-02-26T07:14:00;89887.03;;;3.92;56.73
85119;BME280;75469;47.654;10.494;2024-02-26T07:16:26;89890.41;;;3.96;58.04
85119;BME280;75469;47.654;10.494;2024-02-26T07:18:52;89894.88;;;3.95;58.37
85119;BME280;75469;47.654;10.494;2024-02-26T07:21:17;89881.88;;;4.09;57.36
85119;BME280;75469;47.654;10.494;2024-02-26T07:23:43;89885.66;;;4.37;54.98
85119;BME280;75469;47.654;10.494;2024-02-26T07:26:09;89889.00;;;4.30;58.11
85119;BME280;75469;47.654;10.494;2024-02-26T07:28:37;89888.25;;;4.30;56.31
85119;BME280;75469;47.654;10.494;2024-02-26T07:31:02;89886.44;;;4.52;55.25
85119;BME280;75469;47.654;10.494;2024-02-26T07:33:29;89887.16;;;4.59;53.89
85119;BME280;75469;47.654;10.494;2024-02-26T07:35:54;89890.16;;;4.54;59.25
85119;BME280;75469;47.654;10.494;2024-02-26T07:38:20;89909.97;;;4.41;62.69
85119;BME280;75469;47.654;10.494;2024-02-26T07:40:45;89907.34;;;4.34;64.35
85119;BME280;75469;47.654;10.494;2024-02-26T07:43:11;89913.66;;;4.22;62.79
85119;BME280;75469;47.654;10.494;2024-02-26T07:45:36;89916.31;;;4.37;58.71
85119;BME280;75469;47.654;10.494;2024-02-26T07:48:02;89922.31;;;4.48;56.83
85119;BME280;75469;47.654;10.494;2024-02-26T07:50:28;89913.00;;;4.57;55.00
85119;BME280;75469;47.654;10.494;2024-02-26T07:52:53;89913.72;;;4.58;56.48
85119;BME280;75469;47.654;10.494;2024-02-26T07:55:19;89911.13;;;4.79;55.80
85119;BME280;75469;47.654;10.494;2024-02-26T07:57:44;89911.88;;;4.94;52.10
85119;BME280;75469;47.654;10.494;2024-02-26T08:00:10;89908.53;;;4.97;52.94
85119;BME280;75469;47.654;10.494;2024-02-26T08:02:36;89905.50;;;4.99;52.01
85119;BME280;75469;47.654;10.494;2024-02-26T08:05:02;89907.41;;;5.09;52.09
85119;BME280;75469;47.654;10.494;2024-02-26T08:07:27;89914.06;;;5.49;49.83
85119;BME280;75469;47.654;10.494;2024-02-26T08:09:54;89914.09;;;5.57;51.23
85119;BME280;75469;47.654;10.494;2024-02-26T08:12:19;89918.56;;;5.56;51.54
85119;BME280;75469;47.654;10.494;2024-02-26T08:14:45;89921.91;;;5.71;53.01
85119;BME280;75469;47.654;10.494;2024-02-26T08:17:10;89910.25;;;5.90;52.03
85119;BME280;75469;47.654;10.494;2024-02-26T08:19:36;89904.47;;;6.27;52.12
85119;BME280;75469;47.654;10.494;2024-02-26T08:22:02;89900.75;;;6.21;50.37
85119;BME280;75469;47.654;10.494;2024-02-26T08:24:27;89905.84;;;6.50;49.76
85119;BME280;75469;47.654;10.494;2024-02-26T08:26:53;89897.09;;;6.74;46.71
85119;BME280;75469;47.654;10.494;2024-02-26T08:29:19;89901.44;;;6.99;47.13
85119;BME280;75469;47.654;10.494;2024-02-26T08:31:44;89897.16;;;7.16;48.10
85119;BME280;75469;47.654;10.494;2024-02-26T08:34:10;89898.06;;;7.43;47.74
85119;BME280;75469;47.654;10.494;2024-02-26T08:36:36;89896.47;;;7.53;47.70
85119;BME280;75469;47.654;10.494;2024-02-26T08:39:01;89893.25;;;7.72;47.08
85119;BME280;75469;47.654;10.494;2024-02-26T08:41:27;89894.75;;;7.73;48.35
85119;BME280;75469;47.654;10.494;2024-02-26T08:43:52;89900.53;;;7.61;48.80
85119;BME280;75469;47.654;10.494;2024-02-26T08:46:18;89892.97;;;7.63;46.92
85119;BME280;75469;47.654;10.494;2024-02-26T08:48:43;89890.75;;;7.58;45.87
85119;BME280;75469;47.654;10.494;2024-02-26T08:51:09;89889.91;;;7.68;47.73
85119;BME280;75469;47.654;10.494;2024-02-26T08:53:35;89892.75;;;7.85;46.17
85119;BME280;75469;47.654;10.494;2024-02-26T08:56:01;89898.75;;;7.89;46.44
85119;BME280;75469;47.654;10.494;2024-02-26T08:58:27;89898.78;;;7.82;46.84
85119;BME280;75469;47.654;10.494;2024-02-26T09:00:53;89894.69;;;7.81;45.62
85119;BME280;75469;47.654;10.494;2024-02-26T09:03:18;89887.03;;;7.93;44.66
85119;BME280;75469;47.654;10.494;2024-02-26T09:05:44;89884.00;;;7.95;44.91
85119;BME280;75469;47.654;10.494;2024-02-26T09:08:10;89884.94;;;7.77;45.05
85119;BME280;75469;47.654;10.494;2024-02-26T09:10:36;89883.69;;;7.89;46.92
85119;BME280;75469;47.654;10.494;2024-02-26T09:13:02;89880.13;;;8.03;45.44
85119;BME280;75469;47.654;10.494;2024-02-26T09:15:27;89873.78;;;8.00;44.23
85119;BME280;75469;47.654;10.494;2024-02-26T09:17:53;89872.22;;;8.07;48.12
85119;BME280;75469;47.654;10.494;2024-02-26T09:20:19;89879.28;;;8.13;43.94
85119;BME280;75469;47.654;10.494;2024-02-26T09:22:49;89872.97;;;8.07;43.07
85119;BME280;75469;47.654;10.494;2024-02-26T09:25:16;89870.19;;;8.18;43.42
85119;BME280;75469;47.654;10.494;2024-02-26T09:27:43;89880.41;;;8.46;45.44
85119;BME280;75469;47.654;10.494;2024-02-26T09:30:10;89870.91;;;8.53;42.45
85119;BME280;75469;47.654;10.494;2024-02-26T09:32:36;89868.53;;;8.62;41.89
85119;BME280;75469;47.654;10.494;2024-02-26T09:35:01;89874.88;;;8.64;44.03
85119;BME280;75469;47.654;10.494;2024-02-26T09:37:27;89861.22;;;8.73;42.83
85119;BME280;75469;47.654;10.494;2024-02-26T09:39:53;89868.81;;;8.67;42.44
85119;BME280;75469;47.654;10.494;2024-02-26T09:42:19;89869.41;;;8.79;42.85
85119;BME280;75469;47.654;10.494;2024-02-26T09:44:45;89876.66;;;8.98;44.27
85119;BME280;75469;47.654;10.494;2024-02-26T09:47:11;89878.56;;;9.45;42.66
85119;BME280;75469;47.654;10.494;2024-02-26T09:49:38;89886.25;;;9.35;41.55
85119;BME280;75469;47.654;10.494;2024-02-26T09:52:08;89876.03;;;9.61;42.32
85119;BME280;75469;47.654;10.494;2024-02-26T09:54:35;89883.81;;;9.68;42.84
85119;BME280;75469;47.654;10.494;2024-02-26T09:57:02;89886.94;;;9.83;43.25
85119;BME280;75469;47.654;10.494;2024-02-26T09:59:36;89890.53;;;9.73;42.23
85119;BME280;75469;47.654;10.494;2024-02-26T10:02:04;89886.94;;;9.83;41.57
85119;BME280;75469;47.654;10.494;2024-02-26T10:04:31;89891.47;;;9.82;41.21
85119;BME280;75469;47.654;10.494;2024-02-26T10:06:57;89892.22;;;9.83;42.64
85119;BME280;75469;47.654;10.494;2024-02-26T10:09:25;89898.06;;;9.94;41.14
85119;BME280;75469;47.654;10.494;2024-02-26T10:11:51;89890.13;;;9.94;40.98
85119;BME280;75469;47.654;10.494;2024-02-26T10:14:16;89890.16;;;10.14;42.12
85119;BME280;75469;47.654;10.494;2024-02-26T10:16:42;89892.31;;;10.59;42.84
85119;BME280;75469;47.654;10.494;2024-02-26T10:19:08;89890.63;;;10.85;40.79
85119;BME280;75469;47.654;10.494;2024-02-26T10:21:36;89898.69;;;11.47;41.70
85119;BME280;75469;47.654;10.494;2024-02-26T10:24:01;89902.72;;;12.13;39.95
85119;BME280;75469;47.654;10.494;2024-02-26T10:26:27;89901.66;;;12.40;40.33
85119;BME280;75469;47.654;10.494;2024-02-26T10:28:52;89904.41;;;12.07;37.23
85119;BME280;75469;47.654;10.494;2024-02-26T10:31:18;89895.75;;;11.90;35.39
85119;BME280;75469;47.654;10.494;2024-02-26T10:33:44;89899.09;;;12.37;35.26
85119;BME280;75469;47.654;10.494;2024-02-26T10:36:10;89900.84;;;12.27;35.96
85119;BME280;75469;47.654;10.494;2024-02-26T10:38:37;89905.75;;;12.28;35.68
85119;BME280;75469;47.654;10.494;2024-02-26T10:41:06;89896.44;;;12.37;35.69
85119;BME280;75469;47.654;10.494;2024-02-26T10:43:32;89901.88;;;12.46;35.34
85119;BME280;75469;47.654;10.494;2024-02-26T10:45:58;89900.72;;;11.88;33.91
85119;BME280;75469;47.654;10.494;2024-02-26T10:48:23;89905.56;;;12.06;35.77
85119;BME280;75469;47.654;10.494;2024-02-26T10:50:49;89904.53;;;11.87;34.48
85119;BME280;75469;47.654;10.494;2024-02-26T10:53:22;89908.16;;;11.61;34.88
85119;BME280;75469;47.654;10.494;2024-02-26T10:55:54;89909.66;;;11.45;36.28
85119;BME280;75469;47.654;10.494;2024-02-26T10:58:21;89910.25;;;11.04;34.13
85119;BME280;75469;47.654;10.494;2024-02-26T11:00:50;89905.44;;;11.15;34.49
85119;BME280;75469;47.654;10.494;2024-02-26T11:03:16;89904.88;;;11.24;34.41
85119;BME280;75469;47.654;10.494;2024-02-26T11:05:47;89903.56;;;11.32;33.77
85119;BME280;75469;47.654;10.494;2024-02-26T11:08:14;89903.06;;;11.21;33.79
85119;BME280;75469;47.654;10.494;2024-02-26T11:10:40;89905.13;;;11.13;33.69
85119;BME280;75469;47.654;10.494;2024-02-26T11:13:09;89900.50;;;11.17;33.65
85119;BME280;75469;47.654;10.494;2024-02-26T11:15:36;89906.78;;;11.40;34.38
85119;BME280;75469;47.654;10.494;2024-02-26T11:18:02;89914.22;;;11.29;34.04
85119;BME280;75469;47.654;10.494;2024-02-26T11:20:29;89914.47;;;11.51;33.09
85119;BME280;75469;47.654;10.494;2024-02-26T11:22:55;89916.50;;;11.76;34.29
85119;BME280;75469;47.654;10.494;2024-02-26T11:25:21;89927.69;;;11.83;33.81
85119;BME280;75469;47.654;10.494;2024-02-26T11:27:59;89932.25;;;11.99;31.30
85119;BME280;75469;47.654;10.494;2024-02-26T11:30:30;89929.25;;;11.97;32.82
85119;BME280;75469;47.654;10.494;2024-02-26T11:32:57;89931.66;;;12.08;31.82
85119;BME280;75469;47.654;10.494;2024-02-26T11:35:23;89933.41;;;11.98;34.08
85119;BME280;75469;47.654;10.494;2024-02-26T11:37:56;89932.59;;;12.30;33.92
85119;BME280;75469;47.654;10.494;2024-02-26T11:40:23;89931.16;;;12.13;34.80
85119;BME280;75469;47.654;10.494;2024-02-26T11:42:51;89930.91;;;12.07;33.81
85119;BME280;75469;47.654;10.494;2024-02-26T11:50:48;89936.38;;;11.84;36.11
85119;BME280;75469;47.654;10.494;2024-02-26T11:53:30;89939.19;;;11.93;37.26
85119;BME280;75469;47.654;10.494;2024-02-26T11:58:45;89947.16;;;11.93;37.90
85119;BME280;75469;47.654;10.494;2024-02-26T12:01:43;89948.13;;;11.83;38.51
85119;BME280;75469;47.654;10.494;2024-02-26T12:04:21;89947.16;;;11.93;39.16
85119;BME280;75469;47.654;10.494;2024-02-26T12:06:51;89950.72;;;11.54;44.42
85119;BME280;75469;47.654;10.494;2024-02-26T12:09:40;89950.69;;;11.21;46.79
85119;BME280;75469;47.654;10.494;2024-02-26T12:12:10;89952.34;;;11.15;47.83
85119;BME280;75469;47.654;10.494;2024-02-26T12:14:56;89956.22;;;11.10;48.57
85119;BME280;75469;47.654;10.494;2024-02-26T12:17:25;89959.53;;;10.78;49.30
85119;BME280;75469;47.654;10.494;2024-02-26T12:19:51;89967.66;;;10.67;50.07
85119;BME280;75469;47.654;10.494;2024-02-26T12:22:19;89970.00;;;10.65;50.79
85119;BME280;75469;47.654;10.494;2024-02-26T12:24:46;89968.78;;;10.50;52.01
85119;BME280;75469;47.654;10.494;2024-02-26T12:27:13;89974.25;;;10.39;53.28
85119;BME280;75469;47.654;10.494;2024-02-26T12:29:40;89976.75;;;10.26;53.03
85119;BME280;75469;47.654;10.494;2024-02-26T12:32:07;89978.06;;;10.15;53.13
85119;BME280;75469;47.654;10.494;2024-02-26T12:34:33;89978.34;;;10.20;53.36
85119;BME280;75469;47.654;10.494;2024-02-26T12:36:59;89977.66;;;10.16;52.45
85119;BME280;75469;47.654;10.494;2024-02-26T12:39:25;89987.84;;;9.94;53.90
85119;BME280;75469;47.654;10.494;2024-02-26T12:41:52;89999.72;;;9.82;54.58
85119;BME280;75469;47.654;10.494;2024-02-26T12:44:24;90006.38;;;9.67;49.06
85119;BME280;75469;47.654;10.494;2024-02-26T12:46:50;90012.53;;;9.33;48.76
85119;BME280;75469;47.654;10.494;2024-02-26T12:49:15;90023.94;;;8.96;50.11
85119;BME280;75469;47.654;10.494;2024-02-26T12:51:44;90041.22;;;9.01;48.91
85119;BME280;75469;47.654;10.494;2024-02-26T12:54:10;90038.91;;;9.06;48.90
85119;BME280;75469;47.654;10.494;2024-02-26T12:56:36;90039.75;;;9.00;50.77
85119;BME280;75469;47.654;10.494;2024-02-26T12:59:02;90042.25;;;8.80;49.80
85119;BME280;75469;47.654;10.494;2024-02-26T13:01:29;90049.91;;;8.67;49.85
85119;BME280;75469;47.654;10.494;2024-02-26T13:03:55;90056.88;;;8.50;51.47